Reynolds, North Dakota
Current Conditions -  °F | °C
As of 2:53 AM on Friday 31 Oct 2014 (Local Time) from KGFK Reporting Station
Clear Clear  
Wind Chill: -13°   Ceiling: Unl
Heat Index: -8°   Visibility: 10mi
Dew Point: -11°   Wind: 6mph
Humidity: 84%   Direction: 320°NW
Pressure: 30.61"   Gusts: NA
Location:  47.67°N, 97.11°W
Report Text: KGFK 310753Z AUTO 32005KT 10SM CLR M08/M11 A3061 RMK AO2 SLP382 T10831106 TSNO
Loading
Personal Weather Stations






























Interactive Weather Map
Tropical Storm Tracking
New forecast layout! Learn more

10-Day Weather Forecast

Advertisements
Track Severe Weather on mobile